Terminal Aerodrome Forecast
Issued by NWS

Current Version | Previous Version | Text Only | Print | Product List | Glossary Off
Versions: 1 2 3 4 5 6 7 8 9 10 11 12 13 14 15 16

000
FTUS41 KILN 291100
TAFLUK
TAF
KLUK 291122Z 2912/3012 26007KT P6SM SCT200
     FM291600 28012G18KT P6SM SCT040
     FM292200 30008KT P6SM SCT040
     FM300400 34004KT P6SM SCT040
     FM300900 00000KT 4SM BR SCT040=

USA.gov is the U.S. government's official web portal to all federal, state and local government web resources and services.